Terminal Aerodrome Forecast
Issued by NWS Charleston, WV

Current Version | Previous Version | Text Only | Print | Product List | Glossary Off
Versions: 1 2 3 4 5 6 7 8 9 10 11 12 13 14 15 16 17 18 19 20 21 22 23 24 25

648
FTUS41 KRLX 262336
TAFBKW
TAF
KBKW 262336Z 2700/2724 27006KT P6SM SKC
     FM271400 25010KT P6SM BKN030
     FM271700 26009KT 5SM SHRA VCTS BKN020CB=

USA.gov is the U.S. government's official web portal to all federal, state and local government web resources and services.